createdAt,value
2019-01-17T00:00:03.723Z,0.40
2019-01-17T00:02:49.136Z,0.40
2019-01-17T00:05:37.123Z,0.40
2019-01-17T00:08:35.115Z,0.50
2019-01-17T00:11:30.073Z,0.50
2019-01-17T00:14:21.958Z,0.50
2019-01-17T00:17:03.252Z,0.50
2019-01-17T00:19:55.431Z,0.50
2019-01-17T00:22:56.507Z,0.50
2019-01-17T00:26:01.163Z,0.50
2019-01-17T00:28:58.869Z,0.50
2019-01-17T00:31:39.465Z,0.80
2019-01-17T00:34:34.741Z,0.60
2019-01-17T00:37:21.793Z,0.70
2019-01-17T00:40:16.819Z,0.70
2019-01-17T00:43:04.735Z,0.50
2019-01-17T00:45:49.608Z,0.40
2019-01-17T00:48:37.416Z,0.40
2019-01-17T00:51:24.958Z,0.40
2019-01-17T00:54:15.355Z,0.40
2019-01-17T00:57:07.432Z,0.40
2019-01-17T01:00:05.683Z,0.40
2019-01-17T01:02:54.836Z,0.40
2019-01-17T01:05:40.336Z,0.40
2019-01-17T01:08:28.198Z,0.50
2019-01-17T01:11:15.778Z,0.40
2019-01-17T01:14:16.853Z,0.50
2019-01-17T01:17:18.163Z,0.70
2019-01-17T01:20:05.895Z,0.60
2019-01-17T01:22:53.350Z,0.60
2019-01-17T01:25:51.640Z,0.50
2019-01-17T01:28:39.511Z,0.40
2019-01-17T01:31:29.965Z,0.50
2019-01-17T01:34:06.520Z,0.50
2019-01-17T01:36:52.943Z,0.60
2019-01-17T01:39:38.483Z,0.50
2019-01-17T01:42:15.963Z,0.50
2019-01-17T01:45:14.115Z,0.30
2019-01-17T01:48:06.222Z,0.20
2019-01-17T01:50:55.329Z,0.10
2019-01-17T01:53:25.396Z,0.10
2019-01-17T01:55:55.541Z,0.30
2019-01-17T01:58:25.911Z,0.50
2019-01-17T02:00:56.023Z,0.50
2019-01-17T02:03:26.127Z,0.60
2019-01-17T02:05:56.279Z,0.70
2019-01-17T02:08:26.426Z,0.80
2019-01-17T02:10:56.504Z,0.90
2019-01-17T02:13:27.143Z,0.80
2019-01-17T02:15:57.259Z,1.00
2019-01-17T02:18:27.318Z,0.90
2019-01-17T02:20:57.367Z,1.00
2019-01-17T02:23:27.433Z,1.10
2019-01-17T02:25:58.726Z,1.40
2019-01-17T02:28:29.061Z,1.30
2019-01-17T02:30:59.121Z,1.40
2019-01-17T02:33:29.155Z,1.40
2019-01-17T02:35:59.211Z,1.40
2019-01-17T02:38:29.282Z,1.30
2019-01-17T02:40:59.338Z,1.50
2019-01-17T02:43:29.467Z,1.50
2019-01-17T02:45:59.577Z,1.50
2019-01-17T02:48:29.938Z,1.50
2019-01-17T02:51:00.031Z,1.80
2019-01-17T02:53:30.170Z,1.70
2019-01-17T02:56:00.291Z,1.90
2019-01-17T02:58:31.344Z,1.80
2019-01-17T03:01:01.464Z,2.00
2019-01-17T03:03:31.599Z,2.30
2019-01-17T03:06:01.625Z,2.20
2019-01-17T03:08:31.690Z,2.30
2019-01-17T03:11:01.750Z,2.30
2019-01-17T03:13:32.177Z,2.80
2019-01-17T03:16:02.271Z,2.90
2019-01-17T03:18:32.339Z,3.30
2019-01-17T03:21:02.387Z,3.20
2019-01-17T03:23:32.427Z,3.20
2019-01-17T03:26:02.506Z,3.10
2019-01-17T03:28:32.542Z,3.20
2019-01-17T03:31:02.788Z,3.20
2019-01-17T03:33:33.220Z,3.50
2019-01-17T03:36:03.266Z,3.20
2019-01-17T03:38:33.315Z,3.50
2019-01-17T03:41:03.383Z,3.30
2019-01-17T03:43:33.400Z,3.30
2019-01-17T03:46:03.454Z,3.40
2019-01-17T03:48:33.485Z,3.30
2019-01-17T03:51:03.519Z,3.30
2019-01-17T03:53:33.586Z,3.40
2019-01-17T03:56:03.727Z,3.30
2019-01-17T03:58:34.024Z,3.20
2019-01-17T04:01:04.494Z,3.00
2019-01-17T04:03:34.606Z,3.10
2019-01-17T04:06:04.733Z,3.00
2019-01-17T04:08:34.776Z,3.00
2019-01-17T04:11:04.840Z,3.00
2019-01-17T04:13:35.037Z,3.10
2019-01-17T04:16:05.410Z,3.10
2019-01-17T04:18:36.394Z,3.30
2019-01-17T04:21:06.436Z,3.10
2019-01-17T04:23:36.483Z,2.90
2019-01-17T04:26:06.609Z,3.00
2019-01-17T04:28:36.627Z,3.30
2019-01-17T04:31:06.767Z,3.40
2019-01-17T04:33:36.828Z,3.80
2019-01-17T04:36:06.863Z,3.60
2019-01-17T04:38:36.902Z,4.00
2019-01-17T04:41:07.017Z,3.80
2019-01-17T04:43:37.094Z,4.10
2019-01-17T04:46:07.157Z,4.00
2019-01-17T04:48:37.610Z,4.00
2019-01-17T04:51:07.662Z,4.30
2019-01-17T04:53:37.846Z,4.00
2019-01-17T04:56:07.903Z,3.90
2019-01-17T04:58:37.975Z,4.30
2019-01-17T05:01:08.051Z,4.00
2019-01-17T05:03:38.098Z,4.00
2019-01-17T05:06:08.176Z,4.30
2019-01-17T05:08:38.561Z,4.20
2019-01-17T05:11:08.765Z,4.10
2019-01-17T05:13:38.825Z,4.20
2019-01-17T05:16:08.935Z,4.00
2019-01-17T05:18:39.024Z,3.90
2019-01-17T05:21:09.080Z,3.90
2019-01-17T05:23:39.100Z,4.10
2019-01-17T05:26:09.147Z,3.90
2019-01-17T05:28:39.190Z,3.90
2019-01-17T05:31:09.276Z,3.80
2019-01-17T05:33:39.325Z,4.00
2019-01-17T05:36:09.371Z,3.80
2019-01-17T05:38:39.665Z,3.70
2019-01-17T05:41:09.797Z,3.50
2019-01-17T05:43:40.362Z,3.10
2019-01-17T05:46:11.333Z,3.30
2019-01-17T05:48:41.467Z,3.40
2019-01-17T05:51:11.932Z,3.30
2019-01-17T05:53:42.019Z,3.20
2019-01-17T05:56:12.159Z,3.00
2019-01-17T05:58:42.252Z,2.90
2019-01-17T06:01:12.349Z,2.70
2019-01-17T06:03:42.404Z,2.60
2019-01-17T06:06:12.491Z,2.50
2019-01-17T06:08:42.865Z,2.60
2019-01-17T06:11:13.036Z,2.50
2019-01-17T06:13:43.085Z,2.60
2019-01-17T06:16:13.146Z,2.90
2019-01-17T06:18:43.251Z,2.80
2019-01-17T06:21:13.324Z,2.70
2019-01-17T06:23:45.287Z,2.80
2019-01-17T06:26:15.414Z,2.80
2019-01-17T06:28:45.468Z,2.80
2019-01-17T06:31:15.561Z,2.80
2019-01-17T06:33:45.970Z,3.00
2019-01-17T06:36:17.095Z,3.10
2019-01-17T06:38:47.173Z,3.00
2019-01-17T06:41:17.289Z,3.60
2019-01-17T06:43:47.373Z,3.20
2019-01-17T06:46:17.402Z,3.20
2019-01-17T06:48:47.446Z,2.80
2019-01-17T06:51:17.522Z,2.50
2019-01-17T06:53:47.666Z,2.50
2019-01-17T06:56:18.305Z,2.40
2019-01-17T06:58:48.462Z,2.50
2019-01-17T07:01:18.609Z,2.50
2019-01-17T07:03:48.730Z,2.40
2019-01-17T07:06:18.881Z,2.40
2019-01-17T07:08:49.098Z,2.40
2019-01-17T07:11:19.276Z,2.40
2019-01-17T07:13:49.391Z,2.50
2019-01-17T07:16:19.538Z,2.40
2019-01-17T07:18:49.592Z,2.50
2019-01-17T07:21:19.646Z,2.40
2019-01-17T07:23:49.694Z,2.50
2019-01-17T07:26:19.755Z,2.50
2019-01-17T07:28:49.819Z,2.60
2019-01-17T07:31:19.946Z,2.50
2019-01-17T07:33:50.328Z,2.60
2019-01-17T07:36:20.463Z,2.60
2019-01-17T07:38:50.922Z,2.80
2019-01-17T07:41:21.227Z,2.90
2019-01-17T07:43:51.303Z,2.90
2019-01-17T07:46:21.618Z,3.00
2019-01-17T07:48:51.665Z,3.10
2019-01-17T07:51:21.791Z,3.10
2019-01-17T07:53:51.914Z,3.10
2019-01-17T07:56:22.016Z,3.20
2019-01-17T07:58:52.371Z,3.30
2019-01-17T08:01:22.431Z,3.40
2019-01-17T08:03:52.566Z,3.50
2019-01-17T08:06:22.603Z,3.60
2019-01-17T08:08:52.661Z,3.70
2019-01-17T08:11:22.706Z,3.80
2019-01-17T08:13:52.765Z,3.90
2019-01-17T08:16:22.807Z,4.10
2019-01-17T08:18:53.138Z,4.10
2019-01-17T08:21:23.448Z,4.20
2019-01-17T08:23:53.520Z,4.30
2019-01-17T08:26:23.853Z,4.30
2019-01-17T08:28:53.893Z,4.40
2019-01-17T08:31:24.051Z,4.40
2019-01-17T08:33:54.070Z,4.40
2019-01-17T08:36:24.162Z,4.50
2019-01-17T08:38:54.518Z,4.60
2019-01-17T08:41:24.633Z,4.70
2019-01-17T08:43:54.669Z,4.60
2019-01-17T08:46:27.435Z,4.80
2019-01-17T08:49:00.923Z,4.80
2019-01-17T08:51:31.017Z,4.90
2019-01-17T08:54:01.132Z,5.00
2019-01-17T08:56:31.223Z,5.10
2019-01-17T08:59:01.647Z,5.20
2019-01-17T09:01:31.776Z,5.30
2019-01-17T09:04:01.815Z,5.30
2019-01-17T09:06:31.923Z,5.30
2019-01-17T09:09:02.038Z,5.40
2019-01-17T09:11:32.224Z,5.40
2019-01-17T09:14:02.297Z,5.50
2019-01-17T09:16:32.670Z,5.60
2019-01-17T09:19:02.866Z,5.80
2019-01-17T09:21:33.045Z,5.80
2019-01-17T09:24:03.111Z,5.90
2019-01-17T09:26:33.176Z,6.00
2019-01-17T09:29:03.329Z,6.00
2019-01-17T09:31:33.649Z,6.20
2019-01-17T09:34:03.788Z,6.20
2019-01-17T09:36:33.912Z,6.20
2019-01-17T09:39:06.643Z,6.10
2019-01-17T09:41:36.735Z,6.10
2019-01-17T09:44:06.773Z,6.10
2019-01-17T09:46:36.913Z,6.20
2019-01-17T09:49:06.931Z,6.30
2019-01-17T09:51:37.043Z,6.20
2019-01-17T09:54:07.152Z,6.10
2019-01-17T09:56:37.290Z,6.10
2019-01-17T09:59:07.382Z,6.10
2019-01-17T10:01:37.457Z,6.00
2019-01-17T10:04:07.884Z,6.10
2019-01-17T10:06:38.331Z,6.10
2019-01-17T10:09:08.572Z,6.10
2019-01-17T10:11:38.798Z,6.10
2019-01-17T10:14:08.879Z,6.10
2019-01-17T10:17:09.654Z,6.00
2019-01-17T10:20:06.850Z,5.90
2019-01-17T10:23:13.810Z,6.00
2019-01-17T10:26:21.098Z,6.00
2019-01-17T10:29:28.012Z,6.10
2019-01-17T10:32:37.057Z,6.00
2019-01-17T10:35:39.341Z,5.90
2019-01-17T10:38:49.632Z,6.10
2019-01-17T10:41:54.726Z,6.00
2019-01-17T10:44:57.237Z,6.00
2019-01-17T10:48:09.096Z,6.00
2019-01-17T10:51:07.324Z,6.00
2019-01-17T10:54:07.481Z,6.10
2019-01-17T10:56:59.237Z,6.30
2019-01-17T10:59:58.318Z,6.40
2019-01-17T11:03:01.144Z,6.50
2019-01-17T11:06:22.720Z,6.60
2019-01-17T11:09:40.119Z,6.60
2019-01-17T11:12:59.264Z,6.70
2019-01-17T11:16:01.538Z,6.80
2019-01-17T11:19:18.676Z,6.80
2019-01-17T11:22:50.687Z,6.90
2019-01-17T11:25:54.571Z,7.20
2019-01-17T11:29:10.221Z,7.20
2019-01-17T11:31:47.920Z,7.30
2019-01-17T11:35:27.178Z,7.60
2019-01-17T11:38:32.832Z,7.90
2019-01-17T11:41:54.982Z,7.90
2019-01-17T11:45:03.911Z,7.90
2019-01-17T11:48:29.519Z,7.90
2019-01-17T11:51:55.609Z,7.80
2019-01-17T11:54:38.857Z,7.70
2019-01-17T11:57:43.688Z,7.80
2019-01-17T12:00:36.515Z,7.60
2019-01-17T12:03:56.911Z,7.60
2019-01-17T12:06:27.568Z,7.70
2019-01-17T12:08:57.626Z,7.70
2019-01-17T12:11:27.713Z,7.80
2019-01-17T12:13:57.792Z,7.70
2019-01-17T12:16:27.944Z,7.80
2019-01-17T12:18:58.075Z,7.70
2019-01-17T12:21:28.567Z,7.70
2019-01-17T12:23:58.771Z,7.70
2019-01-17T12:26:28.883Z,7.60
2019-01-17T12:28:59.033Z,7.50
2019-01-17T12:31:29.374Z,7.60
2019-01-17T12:33:59.440Z,7.70
2019-01-17T12:36:29.553Z,7.40
2019-01-17T12:38:59.665Z,7.40
2019-01-17T12:41:29.792Z,7.30
2019-01-17T12:43:59.865Z,7.20
2019-01-17T12:46:29.934Z,7.20
2019-01-17T12:48:59.975Z,7.20
2019-01-17T12:51:30.083Z,7.10
2019-01-17T12:54:00.151Z,7.10
2019-01-17T12:56:30.566Z,7.10
2019-01-17T12:59:00.748Z,7.00
2019-01-17T13:01:31.237Z,7.10
2019-01-17T13:04:04.356Z,7.10
2019-01-17T13:06:34.606Z,7.10
2019-01-17T13:09:07.545Z,7.10
2019-01-17T13:11:37.690Z,7.00
2019-01-17T13:14:07.747Z,7.00
2019-01-17T13:16:37.835Z,6.80
2019-01-17T13:19:09.690Z,6.80
2019-01-17T13:21:40.000Z,6.80
2019-01-17T13:24:10.066Z,6.80
2019-01-17T13:26:40.167Z,6.60
2019-01-17T13:29:10.237Z,6.60
2019-01-17T13:31:40.595Z,6.60
2019-01-17T13:34:10.647Z,6.60
2019-01-17T13:36:40.889Z,6.70
2019-01-17T13:39:10.959Z,6.60
2019-01-17T13:41:41.016Z,6.60
2019-01-17T13:44:11.155Z,6.40
2019-01-17T13:46:41.579Z,6.30
2019-01-17T13:49:11.833Z,6.50
2019-01-17T13:51:41.952Z,6.20
2019-01-17T13:54:12.198Z,6.30
2019-01-17T13:56:42.570Z,6.30
2019-01-17T13:59:13.978Z,6.20
2019-01-17T14:01:44.185Z,6.10
2019-01-17T14:04:14.277Z,6.00
2019-01-17T14:06:44.436Z,6.00
2019-01-17T14:09:14.872Z,6.00
2019-01-17T14:11:45.063Z,6.00
2019-01-17T14:14:18.044Z,5.90
2019-01-17T14:16:55.306Z,5.90
2019-01-17T14:19:27.686Z,5.70
2019-01-17T14:21:57.842Z,5.80
2019-01-17T14:24:27.975Z,5.70
2019-01-17T14:26:58.105Z,5.80
2019-01-17T14:29:28.196Z,5.70
2019-01-17T14:31:58.346Z,5.60
2019-01-17T14:34:28.473Z,5.60
2019-01-17T14:36:59.714Z,5.60
2019-01-17T14:39:30.093Z,5.50
2019-01-17T14:42:00.288Z,5.60
2019-01-17T14:44:30.454Z,5.50
2019-01-17T14:47:00.603Z,5.50
2019-01-17T14:49:30.973Z,5.50
2019-01-17T14:52:01.043Z,5.40
2019-01-17T14:54:31.099Z,5.40
2019-01-17T14:57:01.248Z,5.40
2019-01-17T14:59:31.406Z,5.40
2019-01-17T15:02:01.564Z,5.40
2019-01-17T15:04:31.720Z,5.30
2019-01-17T15:07:01.990Z,5.30
2019-01-17T15:09:32.180Z,5.30
2019-01-17T15:12:02.343Z,5.30
2019-01-17T15:14:32.424Z,5.20
2019-01-17T15:17:02.571Z,5.20
2019-01-17T15:19:32.957Z,5.30
2019-01-17T15:22:03.104Z,5.20
2019-01-17T15:24:33.194Z,5.30
2019-01-17T15:27:03.534Z,5.20
2019-01-17T15:29:34.077Z,5.20
2019-01-17T15:32:04.326Z,5.00
2019-01-17T15:34:34.486Z,5.00
2019-01-17T15:37:04.665Z,5.00
2019-01-17T15:39:34.733Z,5.00
2019-01-17T15:42:04.899Z,4.90
2019-01-17T15:44:35.178Z,4.90
2019-01-17T15:47:05.432Z,4.90
2019-01-17T15:49:35.520Z,4.90
2019-01-17T15:52:05.701Z,5.00
2019-01-17T15:54:35.844Z,4.90
2019-01-17T15:57:06.249Z,5.00
2019-01-17T15:59:36.414Z,4.80
2019-01-17T16:02:06.635Z,5.00
2019-01-17T16:04:36.735Z,4.90
2019-01-17T16:07:06.781Z,4.80
2019-01-17T16:09:36.914Z,4.90
2019-01-17T16:12:07.297Z,4.80
2019-01-17T16:14:37.487Z,4.90
2019-01-17T16:17:07.647Z,4.80
2019-01-17T16:19:37.816Z,4.70
2019-01-17T16:22:07.907Z,4.60
2019-01-17T16:24:38.220Z,4.70
2019-01-17T16:27:08.331Z,4.70
2019-01-17T16:29:39.028Z,4.70
2019-01-17T16:32:09.300Z,4.70
2019-01-17T16:34:39.375Z,4.70
2019-01-17T16:37:09.623Z,4.50
2019-01-17T16:39:39.658Z,4.70
2019-01-17T16:42:09.835Z,4.60
2019-01-17T16:44:39.954Z,4.80
2019-01-17T16:47:10.016Z,4.70
2019-01-17T16:49:40.383Z,4.60
2019-01-17T16:52:10.574Z,4.60
2019-01-17T16:54:40.700Z,4.60
2019-01-17T16:57:10.851Z,4.60
2019-01-17T16:59:40.973Z,4.60
2019-01-17T17:02:11.046Z,4.60
2019-01-17T17:04:41.138Z,4.50
2019-01-17T17:07:11.583Z,4.60
2019-01-17T17:09:41.712Z,4.60
2019-01-17T17:12:11.801Z,4.60
2019-01-17T17:14:41.921Z,4.50
2019-01-17T17:17:12.101Z,4.60
2019-01-17T17:19:42.219Z,4.50
2019-01-17T17:22:12.579Z,4.60
2019-01-17T17:24:42.731Z,4.60
2019-01-17T17:27:13.027Z,4.60
2019-01-17T17:29:43.235Z,4.60
2019-01-17T17:32:14.493Z,4.50
2019-01-17T17:34:44.590Z,4.60
2019-01-17T17:37:14.923Z,4.40
2019-01-17T17:39:45.021Z,4.40
2019-01-17T17:42:16.185Z,4.50
2019-01-17T17:44:46.351Z,4.50
2019-01-17T17:47:16.714Z,4.30
2019-01-17T17:49:47.056Z,4.40
2019-01-17T17:52:17.147Z,4.20
2019-01-17T17:54:47.244Z,4.20
2019-01-17T17:57:17.660Z,4.30
2019-01-17T17:59:47.786Z,4.20
2019-01-17T18:02:26.977Z,4.10
2019-01-17T18:04:57.049Z,4.10
2019-01-17T18:07:27.187Z,4.10
2019-01-17T18:09:59.528Z,4.10
2019-01-17T18:12:29.920Z,4.00
2019-01-17T18:14:59.998Z,4.10
2019-01-17T18:17:30.157Z,4.00
2019-01-17T18:20:00.344Z,4.00
2019-01-17T18:22:30.508Z,4.00
2019-01-17T18:25:02.669Z,4.00
2019-01-17T18:27:32.973Z,4.00
2019-01-17T18:30:03.075Z,4.00
2019-01-17T18:32:33.337Z,4.00
2019-01-17T18:35:03.420Z,4.20
2019-01-17T18:37:33.769Z,4.00
2019-01-17T18:40:04.388Z,4.10
2019-01-17T18:42:34.544Z,4.10
2019-01-17T18:45:06.339Z,4.10
2019-01-17T18:47:36.512Z,4.00
2019-01-17T18:50:09.276Z,4.20
2019-01-17T18:52:39.441Z,4.10
2019-01-17T18:55:09.646Z,4.10
2019-01-17T18:57:39.995Z,3.90
2019-01-17T19:00:19.755Z,4.00
2019-01-17T19:02:50.182Z,3.90
2019-01-17T19:05:20.827Z,4.00
2019-01-17T19:07:51.076Z,4.00
2019-01-17T19:10:21.418Z,3.90
2019-01-17T19:12:51.510Z,3.80
2019-01-17T19:15:29.498Z,3.80
2019-01-17T19:17:59.638Z,4.00
2019-01-17T19:20:30.056Z,3.90
2019-01-17T19:23:00.172Z,3.90
2019-01-17T19:25:30.319Z,3.90
2019-01-17T19:28:00.519Z,3.90
2019-01-17T19:30:31.252Z,3.90
2019-01-17T19:33:01.321Z,3.80
2019-01-17T19:35:31.380Z,3.90
2019-01-17T19:38:01.532Z,3.90
2019-01-17T19:40:32.572Z,3.80
2019-01-17T19:43:02.680Z,3.70
2019-01-17T19:45:33.455Z,3.80
2019-01-17T19:48:03.561Z,3.90
2019-01-17T19:50:35.838Z,3.80
2019-01-17T19:53:07.432Z,3.70
2019-01-17T19:55:37.594Z,3.80
2019-01-17T19:58:07.759Z,3.80
2019-01-17T20:00:37.775Z,3.70
2019-01-17T20:03:07.853Z,3.50
2019-01-17T20:05:38.375Z,3.80
2019-01-17T20:08:08.498Z,3.70
2019-01-17T20:10:38.675Z,3.70
2019-01-17T20:13:08.938Z,3.60
2019-01-17T20:15:39.196Z,3.70
2019-01-17T20:18:09.395Z,3.60
2019-01-17T20:20:39.610Z,3.60
2019-01-17T20:23:09.707Z,3.50
2019-01-17T20:25:39.863Z,3.60
2019-01-17T20:28:10.022Z,3.60
2019-01-17T20:30:40.047Z,3.60
2019-01-17T20:33:10.408Z,3.80
2019-01-17T20:35:40.643Z,3.70
2019-01-17T20:38:10.743Z,3.60
2019-01-17T20:40:40.923Z,3.60
2019-01-17T20:43:11.131Z,3.50
2019-01-17T20:45:41.241Z,3.60
2019-01-17T20:48:12.334Z,3.50
2019-01-17T20:50:42.640Z,3.50
2019-01-17T20:53:12.856Z,3.50
2019-01-17T20:55:43.071Z,3.40
2019-01-17T20:58:13.231Z,3.40
2019-01-17T21:01:22.991Z,3.40
2019-01-17T21:03:53.045Z,3.40
2019-01-17T21:06:23.139Z,3.40
2019-01-17T21:08:53.234Z,3.40
2019-01-17T21:11:23.945Z,3.40
2019-01-17T21:14:06.923Z,3.30
2019-01-17T21:16:35.580Z,3.30
2019-01-17T21:19:05.796Z,3.30
2019-01-17T21:21:35.982Z,3.30
2019-01-17T21:24:06.145Z,3.40
2019-01-17T21:26:36.288Z,3.40
2019-01-17T21:29:06.666Z,3.30
2019-01-17T21:31:36.739Z,3.20
2019-01-17T21:34:06.917Z,3.30
2019-01-17T21:36:36.999Z,3.30
2019-01-17T21:39:08.753Z,3.20
2019-01-17T21:41:39.055Z,3.30
2019-01-17T21:44:09.263Z,3.20
2019-01-17T21:46:39.461Z,3.30
2019-01-17T21:49:09.898Z,3.30
2019-01-17T21:51:40.105Z,3.30
2019-01-17T21:54:10.285Z,3.30
2019-01-17T21:56:40.429Z,3.30
2019-01-17T21:59:10.565Z,3.20
2019-01-17T22:01:40.864Z,3.30
2019-01-17T22:04:11.001Z,3.20
2019-01-17T22:06:54.911Z,3.10
2019-01-17T22:09:25.217Z,2.40
2019-01-17T22:11:55.368Z,2.30
2019-01-17T22:14:28.355Z,2.20
2019-01-17T22:16:58.475Z,2.10
2019-01-17T22:19:28.547Z,1.90
2019-01-17T22:21:58.630Z,1.90
2019-01-17T22:24:28.950Z,1.90
2019-01-17T22:26:59.022Z,2.00
2019-01-17T22:29:29.202Z,2.10
2019-01-17T22:31:59.382Z,2.20
2019-01-17T22:34:29.463Z,2.20
2019-01-17T22:36:59.512Z,2.10
2019-01-17T22:39:29.666Z,2.20
2019-01-17T22:42:00.070Z,2.30
2019-01-17T22:44:30.775Z,2.20
2019-01-17T22:47:01.236Z,2.30
2019-01-17T22:49:31.428Z,2.20
2019-01-17T22:52:01.688Z,2.20
2019-01-17T22:54:31.801Z,2.20
2019-01-17T22:57:02.139Z,2.30
2019-01-17T22:59:32.256Z,2.30
2019-01-17T23:02:02.361Z,2.30
2019-01-17T23:04:33.345Z,2.10
2019-01-17T23:07:03.499Z,2.10
2019-01-17T23:09:33.547Z,2.00
2019-01-17T23:12:03.738Z,2.00
2019-01-17T23:14:33.759Z,2.00
2019-01-17T23:17:03.995Z,2.00
2019-01-17T23:19:34.385Z,2.00
2019-01-17T23:22:04.727Z,2.00
2019-01-17T23:24:35.311Z,2.00
2019-01-17T23:27:05.511Z,2.10
2019-01-17T23:29:35.815Z,2.10
2019-01-17T23:32:06.974Z,2.10
2019-01-17T23:34:37.387Z,2.00
2019-01-17T23:37:07.418Z,2.00
2019-01-17T23:39:38.533Z,2.10
2019-01-17T23:42:08.675Z,2.00
2019-01-17T23:44:38.794Z,2.10
2019-01-17T23:47:08.871Z,2.00
2019-01-17T23:49:38.953Z,2.00
2019-01-17T23:52:09.023Z,2.00
2019-01-17T23:54:39.348Z,1.90
2019-01-17T23:57:09.432Z,2.00
2019-01-17T23:59:39.496Z,2.00
